createdAt,value
2023-03-26T00:00:14.401Z,51.04
2023-03-26T00:02:41.194Z,52.47
2023-03-26T00:05:08.776Z,53.83
2023-03-26T00:07:35.399Z,54.19
2023-03-26T00:10:02.073Z,53.53
2023-03-26T00:12:28.809Z,54.79
2023-03-26T00:14:56.549Z,55.56
2023-03-26T00:17:23.968Z,55.08
2023-03-26T00:19:50.577Z,55.32
2023-03-26T00:22:17.179Z,55.32
2023-03-26T00:24:43.806Z,54.29
2023-03-26T00:27:10.523Z,55.21
2023-03-26T00:29:37.204Z,55.38
2023-03-26T00:32:03.951Z,56.09
2023-03-26T00:34:30.562Z,56.76
2023-03-26T00:36:57.227Z,56.30
2023-03-26T00:39:23.927Z,56.40
2023-03-26T00:41:50.696Z,56.50
2023-03-26T00:44:17.323Z,56.60
2023-03-26T00:46:43.977Z,58.00
2023-03-26T00:49:10.989Z,58.11
2023-03-26T00:51:38.092Z,58.20
2023-03-26T00:54:04.695Z,56.75
2023-03-26T00:56:31.338Z,55.58
2023-03-26T00:58:57.987Z,57.26
2023-03-26T01:01:27.038Z,58.20
2023-03-26T01:04:08.263Z,59.24
2023-03-26T01:06:39.800Z,58.28
2023-03-26T01:09:18.978Z,56.73
2023-03-26T01:11:46.292Z,55.33
2023-03-26T01:14:23.310Z,58.31
2023-03-26T01:16:56.289Z,58.45
2023-03-26T01:19:37.248Z,58.59
2023-03-26T01:22:06.813Z,56.82
2023-03-26T01:24:33.492Z,56.04
2023-03-26T01:27:03.060Z,56.42
2023-03-26T01:29:44.768Z,55.23
2023-03-26T01:32:20.697Z,56.23
2023-03-26T01:35:06.656Z,55.70
2023-03-26T01:37:57.562Z,55.27
2023-03-26T01:40:51.559Z,53.88
2023-03-26T01:43:29.505Z,54.30
2023-03-26T01:46:01.260Z,54.05
2023-03-26T01:48:36.342Z,53.68
2023-03-26T01:51:04.374Z,54.29
2023-03-26T01:53:33.752Z,54.19
2023-03-26T01:56:08.712Z,53.18
2023-03-26T01:59:00.220Z,51.94
2023-03-26T02:01:59.134Z,52.12
2023-03-26T02:04:43.826Z,52.36
2023-03-26T02:07:21.569Z,53.13
2023-03-26T02:09:56.172Z,52.80
2023-03-26T02:12:24.534Z,52.42
2023-03-26T02:14:51.580Z,51.38
2023-03-26T02:17:18.224Z,50.83
2023-03-26T02:19:45.131Z,50.69
2023-03-26T02:22:12.747Z,51.77
2023-03-26T02:24:39.426Z,53.87
2023-03-26T02:27:06.198Z,54.85
2023-03-26T02:29:35.849Z,54.74
2023-03-26T02:32:02.561Z,56.10
2023-03-26T02:34:29.215Z,55.30
2023-03-26T02:36:55.803Z,54.64
2023-03-26T02:39:22.771Z,55.43
2023-03-26T02:41:49.631Z,54.62
2023-03-26T02:44:16.217Z,55.33
2023-03-26T02:46:42.837Z,55.17
2023-03-26T02:49:09.554Z,54.81
2023-03-26T02:51:36.161Z,55.72
2023-03-26T02:54:05.443Z,54.63
2023-03-26T02:56:32.484Z,54.53
2023-03-26T02:58:59.144Z,54.57
2023-03-26T03:01:25.800Z,54.50
2023-03-26T03:03:52.456Z,54.54
2023-03-26T03:06:19.034Z,54.67
2023-03-26T03:08:46.752Z,56.07
2023-03-26T03:11:17.407Z,56.61
2023-03-26T03:13:45.391Z,57.22
2023-03-26T03:16:12.155Z,58.58
2023-03-26T03:18:38.786Z,58.76
2023-03-26T03:21:06.310Z,59.57
2023-03-26T03:23:33.399Z,59.95
2023-03-26T03:26:00.005Z,59.91
2023-03-26T03:28:26.680Z,60.75
2023-03-26T03:30:53.440Z,60.93
2023-03-26T03:33:20.669Z,61.76
2023-03-26T03:35:50.512Z,61.79
2023-03-26T03:38:17.849Z,61.78
2023-03-26T03:40:44.948Z,61.42
2023-03-26T03:43:11.570Z,61.70
2023-03-26T03:45:38.148Z,61.76
2023-03-26T03:48:05.091Z,60.73
2023-03-26T03:50:33.109Z,61.06
2023-03-26T03:53:01.788Z,59.68
2023-03-26T03:55:28.518Z,59.63
2023-03-26T03:57:55.210Z,60.11
2023-03-26T04:00:21.949Z,60.87
2023-03-26T04:02:48.823Z,61.34
2023-03-26T04:05:15.564Z,60.53
2023-03-26T04:07:42.241Z,60.59
2023-03-26T04:10:09.642Z,59.72
2023-03-26T04:12:36.326Z,60.75
2023-03-26T04:15:03.829Z,60.66
2023-03-26T04:17:30.934Z,60.86
2023-03-26T04:19:57.786Z,59.59
2023-03-26T04:22:24.400Z,59.29
2023-03-26T04:24:51.009Z,59.94
2023-03-26T04:27:25.817Z,60.49
2023-03-26T04:29:52.535Z,60.07
2023-03-26T04:32:24.954Z,59.25
2023-03-26T04:34:52.185Z,58.92
2023-03-26T04:37:30.638Z,60.81
2023-03-26T04:39:57.240Z,61.62
2023-03-26T04:42:23.897Z,62.38
2023-03-26T04:44:50.488Z,63.76
2023-03-26T04:47:18.127Z,64.11
2023-03-26T04:49:45.776Z,64.90
2023-03-26T04:52:13.549Z,66.04
2023-03-26T04:54:40.518Z,65.10
2023-03-26T04:57:18.719Z,65.50
2023-03-26T04:59:45.388Z,65.34
2023-03-26T05:02:12.909Z,65.88
2023-03-26T05:04:40.165Z,66.61
2023-03-26T05:07:07.070Z,67.06
2023-03-26T05:09:33.673Z,67.46
2023-03-26T05:12:00.285Z,67.57
2023-03-26T05:14:26.943Z,67.39
2023-03-26T05:19:44.704Z,70.38
2023-03-26T05:22:11.313Z,70.83
2023-03-26T05:24:37.947Z,70.75
2023-03-26T05:27:04.551Z,72.04
2023-03-26T05:29:31.609Z,71.56
2023-03-26T05:31:58.213Z,69.44
2023-03-26T05:34:24.827Z,70.18
2023-03-26T05:36:51.773Z,71.43
2023-03-26T05:39:18.451Z,69.86
2023-03-26T05:41:45.068Z,68.51
2023-03-26T05:44:11.702Z,68.80
2023-03-26T05:46:38.303Z,69.72
2023-03-26T05:49:04.890Z,68.47
2023-03-26T05:51:31.631Z,66.68
2023-03-26T05:53:58.248Z,67.59
2023-03-26T05:56:24.907Z,69.49
2023-03-26T05:58:51.964Z,70.47
2023-03-26T06:01:18.754Z,69.11
2023-03-26T06:03:46.160Z,69.49
2023-03-26T06:06:16.568Z,69.81
2023-03-26T06:08:45.400Z,71.15
2023-03-26T06:11:12.464Z,72.54
2023-03-26T06:13:40.070Z,73.47
2023-03-26T06:16:07.575Z,74.30
2023-03-26T06:18:34.238Z,74.65
2023-03-26T06:21:02.640Z,74.78
2023-03-26T06:23:29.309Z,74.25
2023-03-26T06:25:56.198Z,73.62
2023-03-26T06:28:23.387Z,74.28
2023-03-26T06:30:50.907Z,73.85
2023-03-26T06:33:18.123Z,75.41
2023-03-26T06:35:45.568Z,74.87
2023-03-26T06:38:12.566Z,74.59
2023-03-26T06:40:39.237Z,72.61
2023-03-26T06:43:10.231Z,72.73
2023-03-26T06:45:38.021Z,71.77
2023-03-26T06:48:05.132Z,71.49
2023-03-26T06:50:31.784Z,70.44
2023-03-26T06:52:58.611Z,69.99
2023-03-26T06:55:25.406Z,68.25
2023-03-26T06:57:54.061Z,69.44
2023-03-26T07:00:21.898Z,69.31
2023-03-26T07:02:48.550Z,68.93
2023-03-26T07:05:15.902Z,69.19
2023-03-26T07:07:46.223Z,71.34
2023-03-26T07:10:14.961Z,71.89
2023-03-26T07:12:41.967Z,72.41
2023-03-26T07:15:08.820Z,74.58
2023-03-26T07:17:35.442Z,72.61
2023-03-26T07:20:02.147Z,73.48
2023-03-26T07:22:29.091Z,72.44
2023-03-26T07:24:56.273Z,72.55
2023-03-26T07:27:51.046Z,72.48
2023-03-26T07:30:46.506Z,74.38
2023-03-26T07:33:27.473Z,73.29
2023-03-26T07:36:06.267Z,72.16
2023-03-26T07:38:50.747Z,71.50
2023-03-26T07:41:26.149Z,70.97
2023-03-26T07:44:16.222Z,69.99
2023-03-26T07:46:43.862Z,69.09
2023-03-26T07:49:15.983Z,67.56
2023-03-26T07:51:44.990Z,67.94
2023-03-26T07:54:12.025Z,68.80
2023-03-26T07:56:48.851Z,71.30
2023-03-26T07:59:30.454Z,71.38
2023-03-26T08:02:24.800Z,71.65
2023-03-26T08:05:20.245Z,71.36
2023-03-26T08:08:33.221Z,71.06
2023-03-26T08:11:57.324Z,72.48
2023-03-26T08:15:03.053Z,74.07
2023-03-26T08:18:10.520Z,73.39
2023-03-26T08:20:41.712Z,73.90
2023-03-26T08:23:37.216Z,72.18
2023-03-26T08:26:43.644Z,70.84
2023-03-26T08:29:44.045Z,70.86
2023-03-26T08:32:31.113Z,68.93
2023-03-26T08:35:17.815Z,69.26
2023-03-26T08:37:46.653Z,69.48
2023-03-26T08:40:51.417Z,68.53
2023-03-26T08:43:42.918Z,68.54
2023-03-26T08:47:03.216Z,68.55
2023-03-26T08:49:55.908Z,68.91
2023-03-26T08:52:52.046Z,68.03
2023-03-26T08:55:39.961Z,69.01
2023-03-26T08:58:35.754Z,72.66
2023-03-26T09:01:23.708Z,73.11
2023-03-26T09:04:40.464Z,72.98
2023-03-26T09:07:34.721Z,72.22
2023-03-26T09:10:20.118Z,71.70
2023-03-26T09:12:52.840Z,70.60
2023-03-26T09:15:19.775Z,69.39
2023-03-26T09:18:11.582Z,71.23
2023-03-26T09:21:08.159Z,71.50
2023-03-26T09:23:54.987Z,71.25
2023-03-26T09:26:26.598Z,70.87
2023-03-26T09:29:29.374Z,70.48
2023-03-26T09:32:35.504Z,74.51
2023-03-26T09:35:13.615Z,75.05
2023-03-26T09:38:00.845Z,75.75
2023-03-26T09:40:36.374Z,75.24
2023-03-26T09:43:26.804Z,76.62
2023-03-26T09:46:20.502Z,76.30
2023-03-26T09:49:16.370Z,77.28
2023-03-26T09:51:50.770Z,77.33
2023-03-26T09:54:40.431Z,77.45
2023-03-26T09:57:12.684Z,76.93
2023-03-26T10:00:00.779Z,75.03
2023-03-26T10:03:05.118Z,73.46
2023-03-26T10:05:47.040Z,76.40
2023-03-26T10:08:22.762Z,76.30
2023-03-26T10:11:03.310Z,76.55
2023-03-26T10:13:59.459Z,75.97
2023-03-26T10:16:39.919Z,76.18
2023-03-26T10:19:29.484Z,76.04
2023-03-26T10:22:23.337Z,75.62
2023-03-26T10:25:22.291Z,72.86
2023-03-26T10:28:04.331Z,72.78
2023-03-26T10:30:39.920Z,74.00
2023-03-26T10:33:27.598Z,74.02
2023-03-26T10:36:09.409Z,73.73
2023-03-26T10:38:52.222Z,72.28
2023-03-26T10:41:36.559Z,71.64
2023-03-26T10:44:42.458Z,69.11
2023-03-26T10:47:18.010Z,68.27
2023-03-26T10:49:53.661Z,69.39
2023-03-26T10:52:31.415Z,68.51
2023-03-26T10:55:04.820Z,68.34
2023-03-26T10:57:43.820Z,67.78
2023-03-26T11:00:19.804Z,70.22
2023-03-26T11:03:17.076Z,68.49
2023-03-26T11:06:18.608Z,69.39
2023-03-26T11:08:54.217Z,69.57
2023-03-26T11:11:31.791Z,68.10
2023-03-26T11:14:34.817Z,67.51
2023-03-26T11:17:41.564Z,69.52
2023-03-26T11:20:30.420Z,69.14
2023-03-26T11:23:09.134Z,70.43
2023-03-26T11:25:57.484Z,71.34
2023-03-26T11:32:05.827Z,69.83
2023-03-26T11:34:36.680Z,71.11
2023-03-26T11:34:50.668Z,71.92
2023-03-26T11:37:35.391Z,72.39
2023-03-26T11:40:10.992Z,72.06
2023-03-26T11:42:37.918Z,74.23
2023-03-26T11:45:21.584Z,75.02
2023-03-26T11:47:58.157Z,74.79
2023-03-26T11:50:35.219Z,74.31
2023-03-26T11:53:14.335Z,74.89
2023-03-26T11:55:50.112Z,76.74
2023-03-26T11:58:41.436Z,76.99
2023-03-26T12:01:27.983Z,77.97
2023-03-26T12:04:05.570Z,77.71
2023-03-26T12:06:32.276Z,77.47
2023-03-26T12:08:59.132Z,76.12
2023-03-26T12:11:32.133Z,77.79
2023-03-26T12:14:03.669Z,79.07
2023-03-26T12:16:30.565Z,77.43
2023-03-26T12:19:03.905Z,77.09
2023-03-26T12:21:30.609Z,74.73
2023-03-26T12:24:05.529Z,72.63
2023-03-26T12:26:42.056Z,72.32
2023-03-26T12:29:17.616Z,72.93
2023-03-26T12:32:02.972Z,72.84
2023-03-26T12:34:36.030Z,73.03
2023-03-26T12:37:05.740Z,70.54
2023-03-26T12:40:07.450Z,70.58
2023-03-26T12:44:51.384Z,74.48
2023-03-26T12:45:16.768Z,72.24
2023-03-26T12:47:56.994Z,72.96
2023-03-26T12:50:38.350Z,74.05
2023-03-26T12:53:38.636Z,73.34
2023-03-26T12:56:25.819Z,75.54
2023-03-26T12:59:11.238Z,76.59
2023-03-26T13:01:40.654Z,77.36
2023-03-26T13:04:31.479Z,79.24
2023-03-26T13:07:13.517Z,79.43
2023-03-26T13:10:03.332Z,81.70
2023-03-26T13:13:11.157Z,81.76
2023-03-26T13:15:56.434Z,79.79
2023-03-26T13:18:46.216Z,77.74
2023-03-26T13:21:26.136Z,78.17
2023-03-26T13:23:59.162Z,76.32
2023-03-26T13:26:48.900Z,74.76
2023-03-26T13:29:18.551Z,71.87
2023-03-26T13:32:01.678Z,70.84
2023-03-26T13:34:31.169Z,67.40
2023-03-26T13:37:32.131Z,68.34
2023-03-26T13:40:21.042Z,69.81
2023-03-26T13:43:21.487Z,66.58
2023-03-26T13:45:57.407Z,66.52
2023-03-26T13:48:36.272Z,66.00
2023-03-26T13:51:40.603Z,66.80
2023-03-26T13:54:28.916Z,66.72
2023-03-26T13:57:11.546Z,66.47
2023-03-26T13:59:46.933Z,66.44
2023-03-26T14:02:47.693Z,67.52
2023-03-26T14:05:42.853Z,68.93
2023-03-26T14:08:33.307Z,68.26
2023-03-26T14:11:30.098Z,69.44
2023-03-26T14:14:26.338Z,69.46
2023-03-26T14:17:04.682Z,67.52
2023-03-26T14:20:09.211Z,65.32
2023-03-26T14:22:57.591Z,66.73
2023-03-26T14:25:42.669Z,67.97
2023-03-26T14:28:21.633Z,67.18
2023-03-26T14:31:00.339Z,62.75
2023-03-26T14:33:52.115Z,65.37
2023-03-26T14:36:43.145Z,64.81
2023-03-26T14:39:41.839Z,65.84
2023-03-26T14:42:24.427Z,67.40
2023-03-26T14:45:06.250Z,65.79
2023-03-26T14:47:46.149Z,62.90
2023-03-26T14:50:21.968Z,65.65
2023-03-26T14:53:01.034Z,63.05
2023-03-26T14:55:28.395Z,63.19
2023-03-26T14:58:21.623Z,62.09
2023-03-26T15:01:20.345Z,61.55
2023-03-26T15:04:22.796Z,63.74
2023-03-26T15:06:49.437Z,64.78
2023-03-26T15:09:43.180Z,61.73
2023-03-26T15:12:13.553Z,63.89
2023-03-26T15:15:34.149Z,62.07
2023-03-26T15:18:25.534Z,63.64
2023-03-26T15:21:29.582Z,62.20
2023-03-26T15:24:17.812Z,64.33
2023-03-26T15:27:02.437Z,65.02
2023-03-26T15:29:44.178Z,65.21
2023-03-26T15:32:12.554Z,63.03
2023-03-26T15:35:12.459Z,61.56
2023-03-26T15:38:08.942Z,61.54
2023-03-26T15:40:57.075Z,63.93
2023-03-26T15:43:44.140Z,64.04
2023-03-26T15:46:11.235Z,63.24
2023-03-26T15:48:51.453Z,60.53
2023-03-26T15:51:27.558Z,61.40
2023-03-26T15:54:28.461Z,62.69
2023-03-26T15:57:07.495Z,58.01
2023-03-26T15:59:55.559Z,61.15
2023-03-26T16:02:39.869Z,61.72
2023-03-26T16:05:18.431Z,58.50
2023-03-26T16:08:03.786Z,60.79
2023-03-26T16:10:51.580Z,60.09
2023-03-26T16:13:48.952Z,60.39
2023-03-26T16:16:15.583Z,60.58
2023-03-26T16:18:48.202Z,58.67
2023-03-26T16:21:30.478Z,59.22
2023-03-26T16:24:01.753Z,56.75
2023-03-26T16:26:31.348Z,55.77
2023-03-26T16:29:18.426Z,54.58
2023-03-26T16:32:10.529Z,53.43
2023-03-26T16:34:37.753Z,54.08
2023-03-26T16:37:33.659Z,52.52
2023-03-26T16:40:18.734Z,53.39
2023-03-26T16:43:01.114Z,50.87
2023-03-26T16:45:34.604Z,51.45
2023-03-26T16:48:22.717Z,52.78
2023-03-26T16:51:13.294Z,50.75
2023-03-26T16:54:11.702Z,52.85
2023-03-26T16:57:06.732Z,53.32
2023-03-26T17:00:05.080Z,52.71
2023-03-26T17:03:15.425Z,53.79
2023-03-26T17:05:54.364Z,55.31
2023-03-26T17:08:48.250Z,56.69
2023-03-26T17:11:32.881Z,56.43
2023-03-26T17:14:26.872Z,58.44
2023-03-26T17:17:02.555Z,58.33
2023-03-26T17:19:41.382Z,58.96
2023-03-26T17:22:17.802Z,59.36
2023-03-26T17:24:53.382Z,59.38
2023-03-26T17:27:50.944Z,59.25
2023-03-26T17:30:42.063Z,59.07
2023-03-26T17:33:20.697Z,59.57
2023-03-26T17:35:50.130Z,59.13
2023-03-26T17:38:16.723Z,57.07
2023-03-26T17:40:43.269Z,56.04
2023-03-26T17:43:12.310Z,55.45
2023-03-26T17:45:41.528Z,55.42
2023-03-26T17:48:20.055Z,55.36
2023-03-26T17:51:00.203Z,55.54
2023-03-26T17:53:34.600Z,55.53
2023-03-26T17:56:07.839Z,55.52
2023-03-26T17:58:50.126Z,54.03
2023-03-26T18:01:29.775Z,54.40
2023-03-26T18:04:06.416Z,52.48
2023-03-26T18:06:43.245Z,52.58
2023-03-26T18:09:12.516Z,53.50
2023-03-26T18:12:29.844Z,52.51
2023-03-26T18:15:13.597Z,54.43
2023-03-26T18:17:45.133Z,52.97
2023-03-26T18:20:29.336Z,53.70
2023-03-26T18:22:56.079Z,56.81
2023-03-26T18:25:31.103Z,62.76
2023-03-26T18:27:59.516Z,65.92
2023-03-26T18:30:26.187Z,68.59
2023-03-26T18:33:00.720Z,71.15
2023-03-26T18:35:40.131Z,72.30
2023-03-26T18:38:18.591Z,73.14
2023-03-26T18:41:02.579Z,72.82
2023-03-26T18:43:34.823Z,74.02
2023-03-26T18:46:03.842Z,73.53
2023-03-26T18:48:31.014Z,74.36
2023-03-26T18:51:04.987Z,72.46
2023-03-26T18:53:56.734Z,72.93
2023-03-26T18:56:42.310Z,72.16
2023-03-26T18:59:28.497Z,70.54
2023-03-26T19:01:57.655Z,70.38
2023-03-26T19:04:30.382Z,71.48
2023-03-26T19:06:57.968Z,70.97
2023-03-26T19:09:32.152Z,70.44
2023-03-26T19:12:08.053Z,69.65
2023-03-26T19:14:51.225Z,67.15
2023-03-26T19:17:18.561Z,66.98
2023-03-26T19:19:45.721Z,66.31
2023-03-26T19:22:12.478Z,66.50
2023-03-26T19:24:41.352Z,70.63
2023-03-26T19:27:08.374Z,72.18
2023-03-26T19:29:36.434Z,73.34
2023-03-26T19:32:06.478Z,73.51
2023-03-26T19:34:40.738Z,74.30
2023-03-26T19:37:18.010Z,75.25
2023-03-26T19:39:48.468Z,74.27
2023-03-26T19:42:43.131Z,75.53
2023-03-26T19:45:22.260Z,72.66
2023-03-26T19:48:03.528Z,70.70
2023-03-26T19:50:43.885Z,71.78
2023-03-26T19:53:16.876Z,72.11
2023-03-26T19:55:59.235Z,72.78
2023-03-26T19:58:27.614Z,73.37
2023-03-26T20:00:54.488Z,74.30
2023-03-26T20:03:39.141Z,71.73
2023-03-26T20:06:06.438Z,72.45
2023-03-26T20:08:33.071Z,73.28
2023-03-26T20:10:59.896Z,70.45
2023-03-26T20:13:28.932Z,66.55
2023-03-26T20:16:08.981Z,66.92
2023-03-26T20:18:35.709Z,67.78
2023-03-26T20:21:08.821Z,69.22
2023-03-26T20:23:35.460Z,66.70
2023-03-26T20:26:02.096Z,64.15
2023-03-26T20:28:28.735Z,64.44
2023-03-26T20:30:56.257Z,64.72
2023-03-26T20:33:25.723Z,65.21
2023-03-26T20:35:55.336Z,64.39
2023-03-26T20:38:36.666Z,63.35
2023-03-26T20:41:09.486Z,64.24
2023-03-26T20:43:36.118Z,65.43
2023-03-26T20:46:02.843Z,64.03
2023-03-26T20:48:29.528Z,63.12
2023-03-26T20:50:58.830Z,62.84
2023-03-26T20:53:25.437Z,63.03
2023-03-26T20:55:52.140Z,62.21
2023-03-26T20:58:20.272Z,62.02
2023-03-26T21:01:00.333Z,63.13
2023-03-26T21:03:27.112Z,65.43
2023-03-26T21:05:53.793Z,64.34
2023-03-26T21:08:20.652Z,65.34
2023-03-26T21:10:47.529Z,63.24
2023-03-26T21:13:36.304Z,64.12
2023-03-26T21:16:03.835Z,64.53
2023-03-26T21:18:30.913Z,62.63
2023-03-26T21:21:21.195Z,65.27
2023-03-26T21:23:57.433Z,64.60
2023-03-26T21:26:41.482Z,64.15
2023-03-26T21:29:08.614Z,63.11
2023-03-26T21:31:35.684Z,62.99
2023-03-26T21:34:02.710Z,65.75
2023-03-26T21:36:29.718Z,65.81
2023-03-26T21:38:56.757Z,65.93
2023-03-26T21:41:32.925Z,67.24
2023-03-26T21:43:59.805Z,66.04
2023-03-26T21:46:26.640Z,68.15
2023-03-26T21:48:53.524Z,71.23
2023-03-26T21:51:20.444Z,70.30
2023-03-26T21:53:47.338Z,71.26
2023-03-26T21:56:47.747Z,72.28
2023-03-26T21:59:29.170Z,70.98
2023-03-26T22:01:55.768Z,71.29
2023-03-26T22:04:57.497Z,69.22
2023-03-26T22:07:32.389Z,68.39
2023-03-26T22:09:59.022Z,66.94
2023-03-26T22:12:25.727Z,66.19
2023-03-26T22:14:52.695Z,65.42
2023-03-26T22:17:19.368Z,65.57
2023-03-26T22:19:46.067Z,64.79
2023-03-26T22:22:12.688Z,64.09
2023-03-26T22:24:39.321Z,64.41
2023-03-26T22:27:06.181Z,63.59
2023-03-26T22:29:32.847Z,64.75
2023-03-26T22:31:59.445Z,64.57
2023-03-26T22:34:26.051Z,64.31
2023-03-26T22:36:52.693Z,63.08
2023-03-26T22:39:19.308Z,63.49
2023-03-26T22:41:45.956Z,63.30
2023-03-26T22:44:19.921Z,63.37
2023-03-26T22:46:47.586Z,63.47
2023-03-26T22:49:14.442Z,62.84
2023-03-26T22:51:41.120Z,63.07
2023-03-26T22:54:07.739Z,64.45
2023-03-26T22:56:34.389Z,66.80
2023-03-26T22:59:01.008Z,68.69
2023-03-26T23:01:27.646Z,68.13
2023-03-26T23:03:54.765Z,66.88
2023-03-26T23:06:21.447Z,69.22
2023-03-26T23:08:48.078Z,69.62
2023-03-26T23:11:17.386Z,67.92
2023-03-26T23:13:45.677Z,67.41
2023-03-26T23:16:14.337Z,67.42
2023-03-26T23:18:41.963Z,66.51
2023-03-26T23:21:17.761Z,66.11
2023-03-26T23:23:44.843Z,66.04
2023-03-26T23:26:11.717Z,68.32
2023-03-26T23:28:38.624Z,67.16
2023-03-26T23:31:08.553Z,67.30
2023-03-26T23:33:37.870Z,67.38
2023-03-26T23:36:07.726Z,67.06
2023-03-26T23:38:43.408Z,67.20
2023-03-26T23:41:11.571Z,66.80
2023-03-26T23:43:38.220Z,66.25
2023-03-26T23:46:22.271Z,65.03
2023-03-26T23:48:49.942Z,64.75
2023-03-26T23:51:21.253Z,64.26
2023-03-26T23:53:51.717Z,65.48
2023-03-26T23:56:18.360Z,70.53
2023-03-26T23:58:45.100Z,70.18
